Howertons, Virginia
Current Conditions -  °F | °C
As of 4:35 PM on Saturday 22 Nov 2014 (Local Time) from KXSA Reporting Station
Clear Clear  
Wind Chill: 44°   Ceiling: Unl
Heat Index: 47°   Visibility: 10mi
Dew Point: 10°   Wind: 6mph
Humidity: 23%   Direction: 190°S
Pressure: 30.37"   Gusts: NA
Location:  37.8346°N, 76.8473°W
Report Text: KXSA 222135Z AUTO 19005KT 10SM CLR 08/M12 A3037 RMK AO2 T00811121
Loading
Personal Weather Stations






























Interactive Weather Map New forecast layout! Learn more

10-Day Weather Forecast

Advertisements
Track Severe Weather on mobile